sensor_id;sensor_type;location;lat;lon;timestamp;P1;durP1;ratioP1;P2;durP2;ratioP2
51594;SDS011;37677;53.254;6.594;2022-12-18T00:01:15;107.68;;;62.55;;
51594;SDS011;37677;53.254;6.594;2022-12-18T00:03:42;106.13;;;60.65;;
51594;SDS011;37677;53.254;6.594;2022-12-18T00:06:08;112.43;;;62.28;;
51594;SDS011;37677;53.254;6.594;2022-12-18T00:08:34;116.20;;;64.72;;
51594;SDS011;37677;53.254;6.594;2022-12-18T00:11:04;107.32;;;59.80;;
51594;SDS011;37677;53.254;6.594;2022-12-18T00:13:31;108.93;;;59.85;;
51594;SDS011;37677;53.254;6.594;2022-12-18T00:16:01;123.43;;;63.72;;
51594;SDS011;37677;53.254;6.594;2022-12-18T00:18:27;101.80;;;60.05;;
51594;SDS011;37677;53.254;6.594;2022-12-18T00:20:53;112.57;;;62.42;;
51594;SDS011;37677;53.254;6.594;2022-12-18T00:23:19;115.45;;;63.85;;
51594;SDS011;37677;53.254;6.594;2022-12-18T00:25:45;107.68;;;62.35;;
51594;SDS011;37677;53.254;6.594;2022-12-18T00:28:11;117.68;;;62.88;;
51594;SDS011;37677;53.254;6.594;2022-12-18T00:30:36;122.38;;;65.93;;
51594;SDS011;37677;53.254;6.594;2022-12-18T00:33:02;120.30;;;65.82;;
51594;SDS011;37677;53.254;6.594;2022-12-18T00:35:28;118.90;;;64.00;;
51594;SDS011;37677;53.254;6.594;2022-12-18T00:37:53;120.57;;;65.32;;
51594;SDS011;37677;53.254;6.594;2022-12-18T00:40:19;113.38;;;63.30;;
51594;SDS011;37677;53.254;6.594;2022-12-18T00:42:45;115.18;;;61.92;;
51594;SDS011;37677;53.254;6.594;2022-12-18T00:45:27;118.22;;;65.72;;
51594;SDS011;37677;53.254;6.594;2022-12-18T00:47:54;118.93;;;64.03;;
51594;SDS011;37677;53.254;6.594;2022-12-18T00:50:20;128.70;;;64.47;;
51594;SDS011;37677;53.254;6.594;2022-12-18T00:52:47;123.78;;;66.05;;
51594;SDS011;37677;53.254;6.594;2022-12-18T00:55:13;121.30;;;62.58;;
51594;SDS011;37677;53.254;6.594;2022-12-18T00:57:39;120.93;;;62.63;;
51594;SDS011;37677;53.254;6.594;2022-12-18T01:00:06;118.45;;;62.78;;
51594;SDS011;37677;53.254;6.594;2022-12-18T01:02:34;113.75;;;64.25;;
51594;SDS011;37677;53.254;6.594;2022-12-18T01:05:00;122.65;;;65.03;;
51594;SDS011;37677;53.254;6.594;2022-12-18T01:07:26;116.57;;;63.05;;
51594;SDS011;37677;53.254;6.594;2022-12-18T01:09:51;117.22;;;64.93;;
51594;SDS011;37677;53.254;6.594;2022-12-18T01:12:17;116.25;;;63.78;;
51594;SDS011;37677;53.254;6.594;2022-12-18T01:14:43;123.72;;;67.57;;
51594;SDS011;37677;53.254;6.594;2022-12-18T01:17:08;115.25;;;62.42;;
51594;SDS011;37677;53.254;6.594;2022-12-18T01:19:34;111.00;;;60.80;;
51594;SDS011;37677;53.254;6.594;2022-12-18T01:22:00;104.05;;;56.15;;
51594;SDS011;37677;53.254;6.594;2022-12-18T01:24:26;107.38;;;59.08;;
51594;SDS011;37677;53.254;6.594;2022-12-18T01:26:51;110.22;;;59.33;;
51594;SDS011;37677;53.254;6.594;2022-12-18T01:29:17;106.00;;;58.63;;
51594;SDS011;37677;53.254;6.594;2022-12-18T01:31:43;102.40;;;58.97;;
51594;SDS011;37677;53.254;6.594;2022-12-18T01:34:08;109.03;;;58.78;;
51594;SDS011;37677;53.254;6.594;2022-12-18T01:36:36;112.07;;;60.33;;
51594;SDS011;37677;53.254;6.594;2022-12-18T01:39:05;112.70;;;59.45;;
51594;SDS011;37677;53.254;6.594;2022-12-18T01:41:34;113.88;;;62.15;;
51594;SDS011;37677;53.254;6.594;2022-12-18T01:48:04;112.18;;;60.95;;
51594;SDS011;37677;53.254;6.594;2022-12-18T01:52:54;101.35;;;58.13;;
51594;SDS011;37677;53.254;6.594;2022-12-18T01:55:31;110.75;;;58.58;;
51594;SDS011;37677;53.254;6.594;2022-12-18T01:58:02;100.57;;;55.75;;
51594;SDS011;37677;53.254;6.594;2022-12-18T02:00:28;104.45;;;58.92;;
51594;SDS011;37677;53.254;6.594;2022-12-18T02:02:55;100.50;;;57.15;;
51594;SDS011;37677;53.254;6.594;2022-12-18T02:08:14;103.45;;;56.53;;
51594;SDS011;37677;53.254;6.594;2022-12-18T02:13:31;105.15;;;58.65;;
51594;SDS011;37677;53.254;6.594;2022-12-18T02:18:50;101.40;;;57.05;;
51594;SDS011;37677;53.254;6.594;2022-12-18T02:24:44;104.78;;;59.58;;
51594;SDS011;37677;53.254;6.594;2022-12-18T02:26:50;102.40;;;57.85;;
51594;SDS011;37677;53.254;6.594;2022-12-18T02:29:22;114.93;;;62.38;;
51594;SDS011;37677;53.254;6.594;2022-12-18T02:31:55;110.07;;;60.42;;
51594;SDS011;37677;53.254;6.594;2022-12-18T02:34:29;120.18;;;59.47;;
51594;SDS011;37677;53.254;6.594;2022-12-18T02:36:57;116.97;;;60.08;;
51594;SDS011;37677;53.254;6.594;2022-12-18T02:39:26;111.30;;;60.95;;
51594;SDS011;37677;53.254;6.594;2022-12-18T02:41:54;114.95;;;61.03;;
51594;SDS011;37677;53.254;6.594;2022-12-18T02:44:20;121.07;;;62.47;;
51594;SDS011;37677;53.254;6.594;2022-12-18T02:46:48;113.60;;;62.40;;
51594;SDS011;37677;53.254;6.594;2022-12-18T02:49:34;123.72;;;65.00;;
51594;SDS011;37677;53.254;6.594;2022-12-18T02:52:29;120.32;;;61.65;;
51594;SDS011;37677;53.254;6.594;2022-12-18T03:01:10;120.38;;;61.75;;
51594;SDS011;37677;53.254;6.594;2022-12-18T03:03:59;118.15;;;59.97;;
51594;SDS011;37677;53.254;6.594;2022-12-18T03:06:33;122.68;;;63.50;;
51594;SDS011;37677;53.254;6.594;2022-12-18T03:09:06;116.95;;;61.53;;
51594;SDS011;37677;53.254;6.594;2022-12-18T03:11:36;125.25;;;62.67;;
51594;SDS011;37677;53.254;6.594;2022-12-18T03:14:25;118.90;;;61.42;;
51594;SDS011;37677;53.254;6.594;2022-12-18T03:16:54;123.40;;;61.47;;
51594;SDS011;37677;53.254;6.594;2022-12-18T03:19:25;123.28;;;63.25;;
51594;SDS011;37677;53.254;6.594;2022-12-18T03:21:55;130.52;;;65.07;;
51594;SDS011;37677;53.254;6.594;2022-12-18T03:24:23;126.22;;;63.78;;
51594;SDS011;37677;53.254;6.594;2022-12-18T03:26:52;132.55;;;66.97;;
51594;SDS011;37677;53.254;6.594;2022-12-18T03:29:22;133.77;;;65.68;;
51594;SDS011;37677;53.254;6.594;2022-12-18T03:31:56;130.20;;;65.68;;
51594;SDS011;37677;53.254;6.594;2022-12-18T03:34:29;129.18;;;64.97;;
51594;SDS011;37677;53.254;6.594;2022-12-18T03:36:57;123.28;;;64.97;;
51594;SDS011;37677;53.254;6.594;2022-12-18T03:39:23;127.97;;;63.95;;
51594;SDS011;37677;53.254;6.594;2022-12-18T03:41:55;139.90;;;69.57;;
51594;SDS011;37677;53.254;6.594;2022-12-18T03:47:14;125.97;;;64.40;;
51594;SDS011;37677;53.254;6.594;2022-12-18T03:53:06;124.47;;;67.22;;
51594;SDS011;37677;53.254;6.594;2022-12-18T03:55:46;129.77;;;68.22;;
51594;SDS011;37677;53.254;6.594;2022-12-18T03:58:15;131.13;;;66.05;;
51594;SDS011;37677;53.254;6.594;2022-12-18T04:00:44;128.13;;;65.90;;
51594;SDS011;37677;53.254;6.594;2022-12-18T04:03:11;132.13;;;65.82;;
51594;SDS011;37677;53.254;6.594;2022-12-18T04:05:38;123.03;;;65.00;;
51594;SDS011;37677;53.254;6.594;2022-12-18T04:08:07;123.15;;;64.35;;
51594;SDS011;37677;53.254;6.594;2022-12-18T04:10:36;129.38;;;65.88;;
51594;SDS011;37677;53.254;6.594;2022-12-18T04:13:02;123.00;;;64.57;;
51594;SDS011;37677;53.254;6.594;2022-12-18T04:15:28;123.05;;;64.40;;
51594;SDS011;37677;53.254;6.594;2022-12-18T04:17:54;125.95;;;64.93;;
51594;SDS011;37677;53.254;6.594;2022-12-18T04:20:19;122.85;;;63.78;;
51594;SDS011;37677;53.254;6.594;2022-12-18T04:22:45;118.10;;;64.47;;
51594;SDS011;37677;53.254;6.594;2022-12-18T04:25:11;122.22;;;64.18;;
51594;SDS011;37677;53.254;6.594;2022-12-18T04:27:37;118.55;;;62.40;;
51594;SDS011;37677;53.254;6.594;2022-12-18T04:30:03;119.78;;;63.97;;
51594;SDS011;37677;53.254;6.594;2022-12-18T04:32:29;119.75;;;63.70;;
51594;SDS011;37677;53.254;6.594;2022-12-18T04:34:54;119.70;;;62.92;;
51594;SDS011;37677;53.254;6.594;2022-12-18T04:37:20;111.50;;;60.63;;
51594;SDS011;37677;53.254;6.594;2022-12-18T04:39:46;113.82;;;60.50;;
51594;SDS011;37677;53.254;6.594;2022-12-18T04:42:11;112.30;;;59.72;;
51594;SDS011;37677;53.254;6.594;2022-12-18T04:44:37;119.85;;;62.13;;
51594;SDS011;37677;53.254;6.594;2022-12-18T04:47:03;115.60;;;59.13;;
51594;SDS011;37677;53.254;6.594;2022-12-18T04:49:28;105.30;;;55.45;;
51594;SDS011;37677;53.254;6.594;2022-12-18T04:51:54;106.05;;;56.45;;
51594;SDS011;37677;53.254;6.594;2022-12-18T04:54:20;117.90;;;57.55;;
51594;SDS011;37677;53.254;6.594;2022-12-18T04:56:46;105.90;;;55.65;;
51594;SDS011;37677;53.254;6.594;2022-12-18T04:59:12;105.78;;;57.05;;
51594;SDS011;37677;53.254;6.594;2022-12-18T05:01:37;111.72;;;56.15;;
51594;SDS011;37677;53.254;6.594;2022-12-18T05:04:03;101.55;;;54.10;;
51594;SDS011;37677;53.254;6.594;2022-12-18T05:06:29;108.30;;;54.80;;
51594;SDS011;37677;53.254;6.594;2022-12-18T05:08:54;105.40;;;52.97;;
51594;SDS011;37677;53.254;6.594;2022-12-18T05:11:20;102.53;;;53.28;;
51594;SDS011;37677;53.254;6.594;2022-12-18T05:13:46;104.38;;;54.58;;
51594;SDS011;37677;53.254;6.594;2022-12-18T05:16:12;109.07;;;51.10;;
51594;SDS011;37677;53.254;6.594;2022-12-18T05:18:38;103.50;;;53.22;;
51594;SDS011;37677;53.254;6.594;2022-12-18T05:21:04;107.43;;;53.67;;
51594;SDS011;37677;53.254;6.594;2022-12-18T05:23:30;106.70;;;53.58;;
51594;SDS011;37677;53.254;6.594;2022-12-18T05:25:57;99.13;;;51.15;;
51594;SDS011;37677;53.254;6.594;2022-12-18T05:28:25;98.70;;;51.72;;
51594;SDS011;37677;53.254;6.594;2022-12-18T05:30:52;100.72;;;50.45;;
51594;SDS011;37677;53.254;6.594;2022-12-18T05:33:20;100.10;;;52.17;;
51594;SDS011;37677;53.254;6.594;2022-12-18T05:35:51;103.30;;;51.47;;
51594;SDS011;37677;53.254;6.594;2022-12-18T05:38:18;99.03;;;51.75;;
51594;SDS011;37677;53.254;6.594;2022-12-18T05:40:48;99.68;;;51.58;;
51594;SDS011;37677;53.254;6.594;2022-12-18T05:43:15;96.13;;;50.72;;
51594;SDS011;37677;53.254;6.594;2022-12-18T05:45:41;103.40;;;53.03;;
51594;SDS011;37677;53.254;6.594;2022-12-18T05:48:07;94.47;;;50.70;;
51594;SDS011;37677;53.254;6.594;2022-12-18T05:50:37;94.55;;;49.60;;
51594;SDS011;37677;53.254;6.594;2022-12-18T05:53:04;98.53;;;50.70;;
51594;SDS011;37677;53.254;6.594;2022-12-18T05:55:37;100.18;;;51.65;;
51594;SDS011;37677;53.254;6.594;2022-12-18T05:58:05;96.43;;;51.78;;
51594;SDS011;37677;53.254;6.594;2022-12-18T06:00:33;101.47;;;50.75;;
51594;SDS011;37677;53.254;6.594;2022-12-18T06:03:00;93.57;;;49.08;;
51594;SDS011;37677;53.254;6.594;2022-12-18T06:05:26;88.82;;;48.35;;
51594;SDS011;37677;53.254;6.594;2022-12-18T06:07:52;86.15;;;46.40;;
51594;SDS011;37677;53.254;6.594;2022-12-18T06:10:18;89.68;;;48.22;;
51594;SDS011;37677;53.254;6.594;2022-12-18T06:12:44;83.50;;;45.35;;
51594;SDS011;37677;53.254;6.594;2022-12-18T06:15:10;80.13;;;45.72;;
51594;SDS011;37677;53.254;6.594;2022-12-18T06:17:36;92.60;;;46.70;;
51594;SDS011;37677;53.254;6.594;2022-12-18T06:20:02;86.75;;;45.13;;
51594;SDS011;37677;53.254;6.594;2022-12-18T06:22:30;81.18;;;43.38;;
51594;SDS011;37677;53.254;6.594;2022-12-18T06:24:57;80.25;;;46.05;;
51594;SDS011;37677;53.254;6.594;2022-12-18T06:27:22;85.10;;;45.25;;
51594;SDS011;37677;53.254;6.594;2022-12-18T06:29:48;77.35;;;42.38;;
51594;SDS011;37677;53.254;6.594;2022-12-18T06:32:15;77.05;;;43.47;;
51594;SDS011;37677;53.254;6.594;2022-12-18T06:34:41;79.25;;;43.22;;
51594;SDS011;37677;53.254;6.594;2022-12-18T06:37:06;79.22;;;42.80;;
51594;SDS011;37677;53.254;6.594;2022-12-18T06:39:32;76.82;;;42.35;;
51594;SDS011;37677;53.254;6.594;2022-12-18T06:41:57;78.53;;;42.95;;
51594;SDS011;37677;53.254;6.594;2022-12-18T06:44:23;78.20;;;43.33;;
51594;SDS011;37677;53.254;6.594;2022-12-18T06:46:49;78.38;;;42.47;;
51594;SDS011;37677;53.254;6.594;2022-12-18T06:49:14;78.35;;;41.38;;
51594;SDS011;37677;53.254;6.594;2022-12-18T06:51:41;76.18;;;42.60;;
51594;SDS011;37677;53.254;6.594;2022-12-18T06:54:07;68.55;;;39.22;;
51594;SDS011;37677;53.254;6.594;2022-12-18T06:56:33;70.03;;;40.25;;
51594;SDS011;37677;53.254;6.594;2022-12-18T06:58:59;70.30;;;39.00;;
51594;SDS011;37677;53.254;6.594;2022-12-18T07:01:24;70.47;;;38.88;;
51594;SDS011;37677;53.254;6.594;2022-12-18T07:03:54;66.15;;;38.90;;
51594;SDS011;37677;53.254;6.594;2022-12-18T07:06:22;68.22;;;38.53;;
51594;SDS011;37677;53.254;6.594;2022-12-18T07:08:49;68.28;;;37.72;;
51594;SDS011;37677;53.254;6.594;2022-12-18T07:11:17;67.53;;;38.03;;
51594;SDS011;37677;53.254;6.594;2022-12-18T07:13:43;63.90;;;35.67;;
51594;SDS011;37677;53.254;6.594;2022-12-18T07:16:14;64.30;;;36.95;;
51594;SDS011;37677;53.254;6.594;2022-12-18T07:18:41;61.13;;;37.42;;
51594;SDS011;37677;53.254;6.594;2022-12-18T07:21:07;60.38;;;35.25;;
51594;SDS011;37677;53.254;6.594;2022-12-18T07:23:36;62.33;;;36.28;;
51594;SDS011;37677;53.254;6.594;2022-12-18T07:26:09;64.82;;;35.13;;
51594;SDS011;37677;53.254;6.594;2022-12-18T07:28:37;64.68;;;35.58;;
51594;SDS011;37677;53.254;6.594;2022-12-18T07:31:08;61.97;;;34.78;;
51594;SDS011;37677;53.254;6.594;2022-12-18T07:33:38;61.65;;;33.65;;
51594;SDS011;37677;53.254;6.594;2022-12-18T07:36:05;59.85;;;34.17;;
51594;SDS011;37677;53.254;6.594;2022-12-18T07:38:32;57.88;;;33.20;;
51594;SDS011;37677;53.254;6.594;2022-12-18T07:41:09;53.33;;;33.58;;
51594;SDS011;37677;53.254;6.594;2022-12-18T07:43:37;57.95;;;33.40;;
51594;SDS011;37677;53.254;6.594;2022-12-18T07:46:03;56.10;;;33.83;;
51594;SDS011;37677;53.254;6.594;2022-12-18T07:48:30;57.95;;;33.72;;
51594;SDS011;37677;53.254;6.594;2022-12-18T07:50:59;53.17;;;31.15;;
51594;SDS011;37677;53.254;6.594;2022-12-18T07:53:26;50.70;;;31.92;;
51594;SDS011;37677;53.254;6.594;2022-12-18T07:55:56;51.95;;;32.08;;
51594;SDS011;37677;53.254;6.594;2022-12-18T07:58:22;54.83;;;33.08;;
51594;SDS011;37677;53.254;6.594;2022-12-18T08:00:48;54.35;;;33.35;;
51594;SDS011;37677;53.254;6.594;2022-12-18T08:03:14;49.60;;;31.05;;
51594;SDS011;37677;53.254;6.594;2022-12-18T08:05:40;58.35;;;33.38;;
51594;SDS011;37677;53.254;6.594;2022-12-18T08:08:05;51.80;;;32.63;;
51594;SDS011;37677;53.254;6.594;2022-12-18T08:10:31;53.22;;;32.75;;
51594;SDS011;37677;53.254;6.594;2022-12-18T08:12:56;52.67;;;32.80;;
51594;SDS011;37677;53.254;6.594;2022-12-18T08:15:22;52.72;;;32.83;;
51594;SDS011;37677;53.254;6.594;2022-12-18T08:17:48;52.50;;;32.78;;
51594;SDS011;37677;53.254;6.594;2022-12-18T08:20:14;48.50;;;31.77;;
51594;SDS011;37677;53.254;6.594;2022-12-18T08:22:40;51.35;;;32.63;;
51594;SDS011;37677;53.254;6.594;2022-12-18T08:25:07;53.67;;;33.75;;
51594;SDS011;37677;53.254;6.594;2022-12-18T08:27:33;46.90;;;31.33;;
51594;SDS011;37677;53.254;6.594;2022-12-18T08:29:59;50.90;;;33.15;;
51594;SDS011;37677;53.254;6.594;2022-12-18T08:32:25;46.00;;;29.48;;
51594;SDS011;37677;53.254;6.594;2022-12-18T08:34:51;50.60;;;32.47;;
51594;SDS011;37677;53.254;6.594;2022-12-18T08:37:17;49.55;;;32.33;;
51594;SDS011;37677;53.254;6.594;2022-12-18T08:39:42;43.75;;;28.98;;
51594;SDS011;37677;53.254;6.594;2022-12-18T08:42:08;45.22;;;29.27;;
51594;SDS011;37677;53.254;6.594;2022-12-18T08:44:52;43.83;;;29.52;;
51594;SDS011;37677;53.254;6.594;2022-12-18T08:47:17;41.42;;;28.15;;
51594;SDS011;37677;53.254;6.594;2022-12-18T08:49:43;47.05;;;29.65;;
51594;SDS011;37677;53.254;6.594;2022-12-18T08:52:09;46.58;;;30.67;;
51594;SDS011;37677;53.254;6.594;2022-12-18T08:54:34;45.50;;;29.70;;
51594;SDS011;37677;53.254;6.594;2022-12-18T08:57:00;44.10;;;29.55;;
51594;SDS011;37677;53.254;6.594;2022-12-18T08:59:26;42.10;;;28.83;;
51594;SDS011;37677;53.254;6.594;2022-12-18T09:01:53;42.33;;;29.70;;
51594;SDS011;37677;53.254;6.594;2022-12-18T09:04:20;42.38;;;28.85;;
51594;SDS011;37677;53.254;6.594;2022-12-18T09:06:45;41.92;;;29.20;;
51594;SDS011;37677;53.254;6.594;2022-12-18T09:09:11;42.28;;;28.98;;
51594;SDS011;37677;53.254;6.594;2022-12-18T09:11:37;42.05;;;28.77;;
51594;SDS011;37677;53.254;6.594;2022-12-18T09:14:03;41.83;;;28.40;;
51594;SDS011;37677;53.254;6.594;2022-12-18T09:16:28;39.60;;;27.70;;
51594;SDS011;37677;53.254;6.594;2022-12-18T09:18:55;38.67;;;28.40;;
51594;SDS011;37677;53.254;6.594;2022-12-18T09:21:25;35.30;;;25.60;;
51594;SDS011;37677;53.254;6.594;2022-12-18T09:23:52;38.45;;;25.67;;
51594;SDS011;37677;53.254;6.594;2022-12-18T09:26:19;36.92;;;26.48;;
51594;SDS011;37677;53.254;6.594;2022-12-18T09:28:46;37.42;;;25.23;;
51594;SDS011;37677;53.254;6.594;2022-12-18T09:31:12;34.45;;;24.88;;
51594;SDS011;37677;53.254;6.594;2022-12-18T09:33:38;35.33;;;24.45;;
51594;SDS011;37677;53.254;6.594;2022-12-18T09:36:05;33.75;;;25.00;;
51594;SDS011;37677;53.254;6.594;2022-12-18T09:38:32;35.92;;;25.65;;
51594;SDS011;37677;53.254;6.594;2022-12-18T09:43:47;32.03;;;23.48;;
51594;SDS011;37677;53.254;6.594;2022-12-18T09:46:20;29.08;;;21.65;;
51594;SDS011;37677;53.254;6.594;2022-12-18T09:48:52;33.22;;;22.00;;
51594;SDS011;37677;53.254;6.594;2022-12-18T09:51:27;30.35;;;20.75;;
51594;SDS011;37677;53.254;6.594;2022-12-18T09:54:07;28.65;;;21.73;;
51594;SDS011;37677;53.254;6.594;2022-12-18T09:56:45;28.27;;;21.60;;
51594;SDS011;37677;53.254;6.594;2022-12-18T09:59:20;28.65;;;20.48;;
51594;SDS011;37677;53.254;6.594;2022-12-18T10:01:49;29.58;;;21.33;;
51594;SDS011;37677;53.254;6.594;2022-12-18T10:04:15;27.00;;;19.00;;
51594;SDS011;37677;53.254;6.594;2022-12-18T10:09:37;25.60;;;18.23;;
51594;SDS011;37677;53.254;6.594;2022-12-18T10:12:23;22.48;;;18.27;;
51594;SDS011;37677;53.254;6.594;2022-12-18T10:15:06;28.05;;;18.88;;
51594;SDS011;37677;53.254;6.594;2022-12-18T10:25:55;22.52;;;17.05;;
51594;SDS011;37677;53.254;6.594;2022-12-18T10:28:32;24.35;;;16.25;;
51594;SDS011;37677;53.254;6.594;2022-12-18T10:31:23;23.33;;;16.35;;
51594;SDS011;37677;53.254;6.594;2022-12-18T10:33:49;22.88;;;16.00;;
51594;SDS011;37677;53.254;6.594;2022-12-18T10:36:15;22.10;;;15.35;;
51594;SDS011;37677;53.254;6.594;2022-12-18T10:38:41;21.38;;;14.88;;
51594;SDS011;37677;53.254;6.594;2022-12-18T10:43:39;18.70;;;14.52;;
51594;SDS011;37677;53.254;6.594;2022-12-18T10:48:56;16.52;;;12.18;;
51594;SDS011;37677;53.254;6.594;2022-12-18T10:53:59;16.70;;;12.55;;
51594;SDS011;37677;53.254;6.594;2022-12-18T10:56:28;15.52;;;11.43;;
51594;SDS011;37677;53.254;6.594;2022-12-18T10:58:58;15.55;;;11.65;;
51594;SDS011;37677;53.254;6.594;2022-12-18T11:01:26;16.02;;;11.93;;
51594;SDS011;37677;53.254;6.594;2022-12-18T11:06:19;14.20;;;11.25;;
51594;SDS011;37677;53.254;6.594;2022-12-18T11:08:58;15.90;;;11.35;;
51594;SDS011;37677;53.254;6.594;2022-12-18T11:11:47;13.68;;;10.90;;
51594;SDS011;37677;53.254;6.594;2022-12-18T11:14:18;16.60;;;11.02;;
51594;SDS011;37677;53.254;6.594;2022-12-18T11:16:54;15.90;;;11.55;;
51594;SDS011;37677;53.254;6.594;2022-12-18T11:19:24;14.43;;;10.63;;
51594;SDS011;37677;53.254;6.594;2022-12-18T11:24:26;12.83;;;10.73;;
51594;SDS011;37677;53.254;6.594;2022-12-18T11:27:06;14.70;;;10.90;;
51594;SDS011;37677;53.254;6.594;2022-12-18T11:29:42;15.90;;;10.97;;
51594;SDS011;37677;53.254;6.594;2022-12-18T11:34:41;15.55;;;9.60;;
51594;SDS011;37677;53.254;6.594;2022-12-18T11:37:10;15.25;;;10.30;;
51594;SDS011;37677;53.254;6.594;2022-12-18T11:39:57;13.38;;;9.90;;
51594;SDS011;37677;53.254;6.594;2022-12-18T11:42:38;16.17;;;11.15;;
51594;SDS011;37677;53.254;6.594;2022-12-18T11:50:14;15.77;;;10.52;;
51594;SDS011;37677;53.254;6.594;2022-12-18T11:52:43;14.88;;;10.50;;
51594;SDS011;37677;53.254;6.594;2022-12-18T11:55:30;15.38;;;11.23;;
51594;SDS011;37677;53.254;6.594;2022-12-18T12:01:45;15.93;;;9.73;;
51594;SDS011;37677;53.254;6.594;2022-12-18T12:07:04;13.70;;;9.68;;
51594;SDS011;37677;53.254;6.594;2022-12-18T12:13:33;11.00;;;7.93;;
51594;SDS011;37677;53.254;6.594;2022-12-18T12:18:39;13.02;;;8.98;;
51594;SDS011;37677;53.254;6.594;2022-12-18T12:22:16;12.75;;;8.77;;
51594;SDS011;37677;53.254;6.594;2022-12-18T12:27:16;11.10;;;8.50;;
51594;SDS011;37677;53.254;6.594;2022-12-18T12:40:43;10.50;;;8.48;;
51594;SDS011;37677;53.254;6.594;2022-12-18T12:43:32;10.45;;;8.40;;
51594;SDS011;37677;53.254;6.594;2022-12-18T12:46:09;15.30;;;7.70;;
51594;SDS011;37677;53.254;6.594;2022-12-18T12:48:49;10.15;;;7.63;;
51594;SDS011;37677;53.254;6.594;2022-12-18T12:51:25;10.70;;;7.75;;
51594;SDS011;37677;53.254;6.594;2022-12-18T12:53:57;11.65;;;7.88;;
51594;SDS011;37677;53.254;6.594;2022-12-18T12:56:25;13.82;;;8.57;;
51594;SDS011;37677;53.254;6.594;2022-12-18T13:07:51;12.18;;;8.90;;
51594;SDS011;37677;53.254;6.594;2022-12-18T13:10:31;12.52;;;8.48;;
51594;SDS011;37677;53.254;6.594;2022-12-18T13:13:05;15.68;;;9.05;;
51594;SDS011;37677;53.254;6.594;2022-12-18T13:15:47;13.38;;;9.65;;
51594;SDS011;37677;53.254;6.594;2022-12-18T13:20:42;12.20;;;8.80;;
51594;SDS011;37677;53.254;6.594;2022-12-18T13:25:49;13.38;;;8.80;;
51594;SDS011;37677;53.254;6.594;2022-12-18T13:28:17;13.57;;;9.13;;
51594;SDS011;37677;53.254;6.594;2022-12-18T13:30:51;12.82;;;8.77;;
51594;SDS011;37677;53.254;6.594;2022-12-18T13:38:42;10.98;;;8.30;;
51594;SDS011;37677;53.254;6.594;2022-12-18T13:43:54;13.60;;;7.90;;
51594;SDS011;37677;53.254;6.594;2022-12-18T13:46:27;10.07;;;7.60;;
51594;SDS011;37677;53.254;6.594;2022-12-18T13:49:02;12.20;;;8.15;;
51594;SDS011;37677;53.254;6.594;2022-12-18T13:51:32;12.85;;;8.50;;
51594;SDS011;37677;53.254;6.594;2022-12-18T13:54:00;10.73;;;8.00;;
51594;SDS011;37677;53.254;6.594;2022-12-18T13:56:31;12.32;;;8.70;;
51594;SDS011;37677;53.254;6.594;2022-12-18T14:01:33;11.88;;;8.55;;
51594;SDS011;37677;53.254;6.594;2022-12-18T14:04:09;11.43;;;8.10;;
51594;SDS011;37677;53.254;6.594;2022-12-18T14:06:36;11.73;;;8.50;;
51594;SDS011;37677;53.254;6.594;2022-12-18T14:09:02;12.65;;;7.95;;
51594;SDS011;37677;53.254;6.594;2022-12-18T14:11:28;8.95;;;7.28;;
51594;SDS011;37677;53.254;6.594;2022-12-18T14:13:55;12.15;;;6.88;;
51594;SDS011;37677;53.254;6.594;2022-12-18T14:16:21;12.48;;;7.90;;
51594;SDS011;37677;53.254;6.594;2022-12-18T14:18:48;12.23;;;7.65;;
51594;SDS011;37677;53.254;6.594;2022-12-18T14:21:21;10.38;;;8.07;;
51594;SDS011;37677;53.254;6.594;2022-12-18T14:23:49;14.35;;;8.77;;
51594;SDS011;37677;53.254;6.594;2022-12-18T14:26:28;15.75;;;9.85;;
51594;SDS011;37677;53.254;6.594;2022-12-18T14:28:56;14.77;;;9.50;;
51594;SDS011;37677;53.254;6.594;2022-12-18T14:31:24;11.93;;;9.00;;
51594;SDS011;37677;53.254;6.594;2022-12-18T14:33:51;12.35;;;9.90;;
51594;SDS011;37677;53.254;6.594;2022-12-18T14:36:27;12.05;;;8.68;;
51594;SDS011;37677;53.254;6.594;2022-12-18T14:38:57;13.27;;;8.73;;
51594;SDS011;37677;53.254;6.594;2022-12-18T14:41:24;15.73;;;9.50;;
51594;SDS011;37677;53.254;6.594;2022-12-18T14:43:51;13.93;;;9.80;;
51594;SDS011;37677;53.254;6.594;2022-12-18T14:49:01;16.70;;;11.38;;
51594;SDS011;37677;53.254;6.594;2022-12-18T14:51:47;12.55;;;9.45;;
51594;SDS011;37677;53.254;6.594;2022-12-18T14:54:16;13.93;;;9.82;;
51594;SDS011;37677;53.254;6.594;2022-12-18T14:56:44;13.10;;;10.23;;
51594;SDS011;37677;53.254;6.594;2022-12-18T14:59:13;15.85;;;10.35;;
51594;SDS011;37677;53.254;6.594;2022-12-18T15:01:50;15.10;;;10.07;;
51594;SDS011;37677;53.254;6.594;2022-12-18T15:07:04;12.32;;;10.02;;
51594;SDS011;37677;53.254;6.594;2022-12-18T15:09:36;11.80;;;9.90;;
51594;SDS011;37677;53.254;6.594;2022-12-18T15:12:03;17.25;;;10.20;;
51594;SDS011;37677;53.254;6.594;2022-12-18T15:14:47;15.55;;;10.70;;
51594;SDS011;37677;53.254;6.594;2022-12-18T15:17:17;14.32;;;10.10;;
51594;SDS011;37677;53.254;6.594;2022-12-18T15:19:44;15.60;;;10.52;;
51594;SDS011;37677;53.254;6.594;2022-12-18T15:22:22;15.45;;;10.40;;
51594;SDS011;37677;53.254;6.594;2022-12-18T15:24:52;20.08;;;10.88;;
51594;SDS011;37677;53.254;6.594;2022-12-18T15:27:30;15.70;;;11.50;;
51594;SDS011;37677;53.254;6.594;2022-12-18T15:32:35;18.05;;;11.38;;
51594;SDS011;37677;53.254;6.594;2022-12-18T15:35:03;16.27;;;11.23;;
51594;SDS011;37677;53.254;6.594;2022-12-18T15:37:41;14.20;;;10.52;;
51594;SDS011;37677;53.254;6.594;2022-12-18T15:40:12;14.55;;;10.85;;
51594;SDS011;37677;53.254;6.594;2022-12-18T15:42:47;15.77;;;11.45;;
51594;SDS011;37677;53.254;6.594;2022-12-18T15:45:35;13.85;;;11.13;;
51594;SDS011;37677;53.254;6.594;2022-12-18T15:51:00;15.73;;;11.65;;
51594;SDS011;37677;53.254;6.594;2022-12-18T15:53:29;15.32;;;11.57;;
51594;SDS011;37677;53.254;6.594;2022-12-18T15:55:58;13.55;;;11.48;;
51594;SDS011;37677;53.254;6.594;2022-12-18T15:58:42;17.20;;;12.35;;
51594;SDS011;37677;53.254;6.594;2022-12-18T16:01:08;15.63;;;11.82;;
51594;SDS011;37677;53.254;6.594;2022-12-18T16:03:35;14.35;;;11.60;;
51594;SDS011;37677;53.254;6.594;2022-12-18T16:06:01;16.42;;;13.13;;
51594;SDS011;37677;53.254;6.594;2022-12-18T16:08:28;16.88;;;12.40;;
51594;SDS011;37677;53.254;6.594;2022-12-18T16:10:55;18.58;;;12.82;;
51594;SDS011;37677;53.254;6.594;2022-12-18T16:13:21;16.33;;;12.20;;
51594;SDS011;37677;53.254;6.594;2022-12-18T16:15:47;16.30;;;12.55;;
51594;SDS011;37677;53.254;6.594;2022-12-18T16:18:13;17.00;;;13.35;;
51594;SDS011;37677;53.254;6.594;2022-12-18T16:20:39;17.67;;;12.77;;
51594;SDS011;37677;53.254;6.594;2022-12-18T16:23:05;16.58;;;13.38;;
51594;SDS011;37677;53.254;6.594;2022-12-18T16:25:31;19.85;;;13.82;;
51594;SDS011;37677;53.254;6.594;2022-12-18T16:27:57;16.98;;;13.65;;
51594;SDS011;37677;53.254;6.594;2022-12-18T16:30:24;19.25;;;13.75;;
51594;SDS011;37677;53.254;6.594;2022-12-18T16:32:53;16.63;;;12.77;;
51594;SDS011;37677;53.254;6.594;2022-12-18T16:35:19;20.27;;;14.65;;
51594;SDS011;37677;53.254;6.594;2022-12-18T16:37:45;16.67;;;12.52;;